sensor_id;sensor_type;location;lat;lon;timestamp;pressure;altitude;pressure_sealevel;temperature;humidity
53635;BME280;39542;-34.932;138.594;2022-10-31T00:00:07;99041.16;;;18.84;64.32
53635;BME280;39542;-34.932;138.594;2022-10-31T00:00:42;99041.59;;;18.79;64.40
53635;BME280;39542;-34.932;138.594;2022-10-31T00:01:21;99029.05;;;18.80;64.41
53635;BME280;39542;-34.932;138.594;2022-10-31T00:01:55;99027.81;;;18.81;64.40
53635;BME280;39542;-34.932;138.594;2022-10-31T00:02:30;99028.23;;;18.82;64.32
53635;BME280;39542;-34.932;138.594;2022-10-31T00:03:05;99034.43;;;18.84;64.29
53635;BME280;39542;-34.932;138.594;2022-10-31T00:03:39;99039.86;;;18.83;64.31
53635;BME280;39542;-34.932;138.594;2022-10-31T00:04:13;99047.41;;;18.81;64.36
53635;BME280;39542;-34.932;138.594;2022-10-31T00:04:49;99049.23;;;18.79;64.39
53635;BME280;39542;-34.932;138.594;2022-10-31T00:05:24;99049.53;;;18.79;64.38
53635;BME280;39542;-34.932;138.594;2022-10-31T00:05:59;99047.26;;;18.81;64.25
53635;BME280;39542;-34.932;138.594;2022-10-31T00:06:33;99046.96;;;18.82;64.20
53635;BME280;39542;-34.932;138.594;2022-10-31T00:07:07;99046.83;;;18.82;64.23
53635;BME280;39542;-34.932;138.594;2022-10-31T00:07:42;99045.95;;;18.82;64.24
53635;BME280;39542;-34.932;138.594;2022-10-31T00:08:18;99048.17;;;18.78;64.36
53635;BME280;39542;-34.932;138.594;2022-10-31T00:08:56;99048.20;;;18.79;64.31
53635;BME280;39542;-34.932;138.594;2022-10-31T00:09:31;99049.14;;;18.80;64.34
53635;BME280;39542;-34.932;138.594;2022-10-31T00:10:06;99046.15;;;18.78;64.26
53635;BME280;39542;-34.932;138.594;2022-10-31T00:10:43;99044.62;;;18.76;64.35
53635;BME280;39542;-34.932;138.594;2022-10-31T00:11:19;99038.37;;;18.76;64.33
53635;BME280;39542;-34.932;138.594;2022-10-31T00:11:53;99038.46;;;18.79;64.26
53635;BME280;39542;-34.932;138.594;2022-10-31T00:12:28;99041.40;;;18.80;64.19
53635;BME280;39542;-34.932;138.594;2022-10-31T00:13:03;99043.36;;;18.80;64.27
53635;BME280;39542;-34.932;138.594;2022-10-31T00:13:37;99046.24;;;18.80;64.24
53635;BME280;39542;-34.932;138.594;2022-10-31T00:14:11;99043.24;;;18.77;64.28
53635;BME280;39542;-34.932;138.594;2022-10-31T00:14:46;99044.55;;;18.77;64.32
53635;BME280;39542;-34.932;138.594;2022-10-31T00:15:21;99045.98;;;18.77;64.28
53635;BME280;39542;-34.932;138.594;2022-10-31T00:15:55;99040.60;;;18.76;64.30
53635;BME280;39542;-34.932;138.594;2022-10-31T00:16:31;99041.77;;;18.78;64.28
53635;BME280;39542;-34.932;138.594;2022-10-31T00:17:05;99039.72;;;18.78;64.20
53635;BME280;39542;-34.932;138.594;2022-10-31T00:17:39;99042.07;;;18.82;64.22
53635;BME280;39542;-34.932;138.594;2022-10-31T00:18:14;99041.35;;;18.78;64.26
53635;BME280;39542;-34.932;138.594;2022-10-31T00:18:50;99035.49;;;18.76;64.27
53635;BME280;39542;-34.932;138.594;2022-10-31T00:19:25;99037.97;;;18.80;64.16
53635;BME280;39542;-34.932;138.594;2022-10-31T00:19:59;99032.52;;;18.78;64.24
53635;BME280;39542;-34.932;138.594;2022-10-31T00:20:33;99034.88;;;18.79;64.22
53635;BME280;39542;-34.932;138.594;2022-10-31T00:21:08;99034.03;;;18.78;64.18
53635;BME280;39542;-34.932;138.594;2022-10-31T00:21:44;99030.13;;;18.77;64.15
53635;BME280;39542;-34.932;138.594;2022-10-31T00:22:18;99026.99;;;18.79;64.23
53635;BME280;39542;-34.932;138.594;2022-10-31T00:22:52;99024.70;;;18.80;64.19
53635;BME280;39542;-34.932;138.594;2022-10-31T00:23:27;99027.23;;;18.81;64.09
53635;BME280;39542;-34.932;138.594;2022-10-31T00:24:01;99023.08;;;18.80;64.15
53635;BME280;39542;-34.932;138.594;2022-10-31T00:24:36;99024.45;;;18.84;64.12
53635;BME280;39542;-34.932;138.594;2022-10-31T00:25:11;99025.97;;;18.82;64.15
53635;BME280;39542;-34.932;138.594;2022-10-31T00:25:45;99024.39;;;18.84;64.13
53635;BME280;39542;-34.932;138.594;2022-10-31T00:26:20;99024.13;;;18.84;64.09
53635;BME280;39542;-34.932;138.594;2022-10-31T00:26:54;99022.29;;;18.84;64.11
53635;BME280;39542;-34.932;138.594;2022-10-31T00:27:28;99021.01;;;18.86;64.05
53635;BME280;39542;-34.932;138.594;2022-10-31T00:28:03;99018.91;;;18.85;64.05
53635;BME280;39542;-34.932;138.594;2022-10-31T00:28:37;99016.50;;;18.87;64.07
53635;BME280;39542;-34.932;138.594;2022-10-31T00:29:12;99018.73;;;18.88;64.02
53635;BME280;39542;-34.932;138.594;2022-10-31T00:29:47;99017.64;;;18.89;64.00
53635;BME280;39542;-34.932;138.594;2022-10-31T00:30:21;99018.63;;;18.92;64.03
53635;BME280;39542;-34.932;138.594;2022-10-31T00:30:58;99016.96;;;18.92;63.92
53635;BME280;39542;-34.932;138.594;2022-10-31T00:31:32;99017.46;;;18.91;63.98
53635;BME280;39542;-34.932;138.594;2022-10-31T00:32:07;99015.14;;;18.92;63.98
53635;BME280;39542;-34.932;138.594;2022-10-31T00:32:41;99018.26;;;18.94;63.90
53635;BME280;39542;-34.932;138.594;2022-10-31T00:33:15;99017.38;;;18.95;63.88
53635;BME280;39542;-34.932;138.594;2022-10-31T00:33:51;99022.00;;;18.96;63.85
53635;BME280;39542;-34.932;138.594;2022-10-31T00:34:26;99023.94;;;18.95;63.89
53635;BME280;39542;-34.932;138.594;2022-10-31T00:35:03;99023.06;;;18.95;63.86
53635;BME280;39542;-34.932;138.594;2022-10-31T00:35:38;99023.90;;;18.95;63.91
53635;BME280;39542;-34.932;138.594;2022-10-31T00:36:16;99022.20;;;18.97;63.87
53635;BME280;39542;-34.932;138.594;2022-10-31T00:36:51;99019.80;;;18.99;63.77
53635;BME280;39542;-34.932;138.594;2022-10-31T00:37:26;99019.59;;;19.00;63.70
53635;BME280;39542;-34.932;138.594;2022-10-31T00:38:00;99016.71;;;19.00;63.72
53635;BME280;39542;-34.932;138.594;2022-10-31T00:38:36;99013.70;;;18.99;63.72
53635;BME280;39542;-34.932;138.594;2022-10-31T00:39:10;99010.07;;;18.99;63.74
53635;BME280;39542;-34.932;138.594;2022-10-31T00:39:45;99008.14;;;19.00;63.73
53635;BME280;39542;-34.932;138.594;2022-10-31T00:40:19;99001.13;;;19.02;63.69
53635;BME280;39542;-34.932;138.594;2022-10-31T00:40:53;99001.60;;;19.02;63.69
53635;BME280;39542;-34.932;138.594;2022-10-31T00:41:29;98995.66;;;19.02;63.69
53635;BME280;39542;-34.932;138.594;2022-10-31T00:42:04;98993.41;;;19.03;63.68
53635;BME280;39542;-34.932;138.594;2022-10-31T00:42:39;98987.20;;;19.05;63.57
53635;BME280;39542;-34.932;138.594;2022-10-31T00:43:13;98983.24;;;19.07;63.55
53635;BME280;39542;-34.932;138.594;2022-10-31T00:43:47;98979.07;;;19.07;63.58
53635;BME280;39542;-34.932;138.594;2022-10-31T00:44:22;98976.43;;;19.05;63.56
53635;BME280;39542;-34.932;138.594;2022-10-31T00:44:56;98978.40;;;19.03;63.68
53635;BME280;39542;-34.932;138.594;2022-10-31T00:45:32;98974.87;;;19.05;63.57
53635;BME280;39542;-34.932;138.594;2022-10-31T00:46:07;98972.31;;;19.05;63.53
53635;BME280;39542;-34.932;138.594;2022-10-31T00:46:42;98972.77;;;19.05;63.50
53635;BME280;39542;-34.932;138.594;2022-10-31T00:47:16;98969.87;;;19.05;63.52
53635;BME280;39542;-34.932;138.594;2022-10-31T00:47:51;98969.49;;;19.05;63.59
53635;BME280;39542;-34.932;138.594;2022-10-31T00:48:25;98968.31;;;19.03;63.55
53635;BME280;39542;-34.932;138.594;2022-10-31T00:48:59;98972.16;;;19.04;63.51
53635;BME280;39542;-34.932;138.594;2022-10-31T00:49:34;98972.16;;;19.05;63.52
53635;BME280;39542;-34.932;138.594;2022-10-31T00:50:09;98971.37;;;19.06;63.52
53635;BME280;39542;-34.932;138.594;2022-10-31T00:50:43;98970.24;;;19.06;63.48
53635;BME280;39542;-34.932;138.594;2022-10-31T00:51:17;98970.80;;;19.02;63.51
53635;BME280;39542;-34.932;138.594;2022-10-31T00:51:52;98970.41;;;19.02;63.55
53635;BME280;39542;-34.932;138.594;2022-10-31T00:52:26;98972.11;;;19.03;63.55
53635;BME280;39542;-34.932;138.594;2022-10-31T00:53:01;98966.61;;;19.04;63.53
53635;BME280;39542;-34.932;138.594;2022-10-31T00:53:35;98971.33;;;19.04;63.51
53635;BME280;39542;-34.932;138.594;2022-10-31T00:54:10;98971.81;;;19.06;63.46
53635;BME280;39542;-34.932;138.594;2022-10-31T00:54:44;98971.21;;;19.06;63.46
53635;BME280;39542;-34.932;138.594;2022-10-31T00:55:19;98972.60;;;19.05;63.52
53635;BME280;39542;-34.932;138.594;2022-10-31T00:55:53;98970.81;;;19.03;63.53
53635;BME280;39542;-34.932;138.594;2022-10-31T00:56:28;98968.09;;;19.06;63.47
53635;BME280;39542;-34.932;138.594;2022-10-31T00:57:02;98968.51;;;19.08;63.47
53635;BME280;39542;-34.932;138.594;2022-10-31T00:57:36;98966.60;;;19.07;63.41
53635;BME280;39542;-34.932;138.594;2022-10-31T00:58:11;98967.22;;;19.08;63.40
53635;BME280;39542;-34.932;138.594;2022-10-31T00:58:46;98966.52;;;19.04;63.48
53635;BME280;39542;-34.932;138.594;2022-10-31T00:59:21;98966.18;;;19.04;63.48
53635;BME280;39542;-34.932;138.594;2022-10-31T00:59:55;98963.89;;;19.05;63.51
53635;BME280;39542;-34.932;138.594;2022-10-31T01:00:29;98962.70;;;19.05;63.46
53635;BME280;39542;-34.932;138.594;2022-10-31T01:01:04;98963.74;;;19.00;63.54
53635;BME280;39542;-34.932;138.594;2022-10-31T01:01:38;98965.36;;;18.98;63.61
53635;BME280;39542;-34.932;138.594;2022-10-31T01:02:13;98960.52;;;18.99;63.60
53635;BME280;39542;-34.932;138.594;2022-10-31T01:02:48;98964.00;;;19.01;63.57
53635;BME280;39542;-34.932;138.594;2022-10-31T01:03:23;98962.87;;;19.05;63.49
53635;BME280;39542;-34.932;138.594;2022-10-31T01:03:58;98961.52;;;19.09;63.34
53635;BME280;39542;-34.932;138.594;2022-10-31T01:04:33;98963.43;;;19.09;63.40
53635;BME280;39542;-34.932;138.594;2022-10-31T01:05:07;98962.63;;;19.08;63.39
53635;BME280;39542;-34.932;138.594;2022-10-31T01:05:42;98964.19;;;19.07;63.39
53635;BME280;39542;-34.932;138.594;2022-10-31T01:06:17;98959.23;;;19.05;63.47
53635;BME280;39542;-34.932;138.594;2022-10-31T01:06:51;98961.09;;;19.06;63.37
53635;BME280;39542;-34.932;138.594;2022-10-31T01:07:25;98957.68;;;19.03;63.53
53635;BME280;39542;-34.932;138.594;2022-10-31T01:08:00;98958.01;;;19.01;63.59
53635;BME280;39542;-34.932;138.594;2022-10-31T01:08:34;98960.81;;;19.06;63.52
53635;BME280;39542;-34.932;138.594;2022-10-31T01:09:10;98962.65;;;19.03;63.54
53635;BME280;39542;-34.932;138.594;2022-10-31T01:09:44;98963.09;;;19.02;63.59
53635;BME280;39542;-34.932;138.594;2022-10-31T01:10:18;98961.92;;;19.04;63.49
53635;BME280;39542;-34.932;138.594;2022-10-31T01:11:05;98963.00;;;19.05;63.48
53635;BME280;39542;-34.932;138.594;2022-10-31T01:11:40;98955.13;;;19.02;63.52
53635;BME280;39542;-34.932;138.594;2022-10-31T01:12:15;98960.00;;;18.97;63.58
53635;BME280;39542;-34.932;138.594;2022-10-31T01:12:50;98961.41;;;18.96;63.69
53635;BME280;39542;-34.932;138.594;2022-10-31T01:13:25;98962.21;;;19.00;63.61
53635;BME280;39542;-34.932;138.594;2022-10-31T01:13:59;98960.22;;;19.03;63.49
53635;BME280;39542;-34.932;138.594;2022-10-31T01:14:34;98961.26;;;19.06;63.44
53635;BME280;39542;-34.932;138.594;2022-10-31T01:15:09;98962.41;;;19.02;63.53
53635;BME280;39542;-34.932;138.594;2022-10-31T01:15:44;98962.97;;;19.04;63.47
53635;BME280;39542;-34.932;138.594;2022-10-31T01:16:21;98962.04;;;19.02;63.49
53635;BME280;39542;-34.932;138.594;2022-10-31T01:16:56;98960.16;;;19.04;63.51
53635;BME280;39542;-34.932;138.594;2022-10-31T01:17:31;98963.40;;;19.05;63.41
53635;BME280;39542;-34.932;138.594;2022-10-31T01:18:05;98961.33;;;19.05;63.44
53635;BME280;39542;-34.932;138.594;2022-10-31T01:18:40;98960.61;;;19.07;63.36
53635;BME280;39542;-34.932;138.594;2022-10-31T01:19:15;98962.34;;;19.04;63.42
53635;BME280;39542;-34.932;138.594;2022-10-31T01:19:49;98960.95;;;19.05;63.47
53635;BME280;39542;-34.932;138.594;2022-10-31T01:20:24;98962.69;;;19.06;63.45
53635;BME280;39542;-34.932;138.594;2022-10-31T01:21:03;98963.87;;;19.07;63.40
53635;BME280;39542;-34.932;138.594;2022-10-31T01:21:38;98966.10;;;19.08;63.38
53635;BME280;39542;-34.932;138.594;2022-10-31T01:22:13;98961.52;;;19.07;63.39
53635;BME280;39542;-34.932;138.594;2022-10-31T01:22:48;98961.67;;;19.06;63.40
53635;BME280;39542;-34.932;138.594;2022-10-31T01:23:22;98961.67;;;19.07;63.35
53635;BME280;39542;-34.932;138.594;2022-10-31T01:23:57;98958.53;;;19.05;63.40
53635;BME280;39542;-34.932;138.594;2022-10-31T01:24:32;98957.47;;;19.09;63.31
53635;BME280;39542;-34.932;138.594;2022-10-31T01:25:07;98956.02;;;19.08;63.39
53635;BME280;39542;-34.932;138.594;2022-10-31T01:25:42;98955.92;;;19.08;63.33
53635;BME280;39542;-34.932;138.594;2022-10-31T01:26:19;98955.46;;;19.04;63.43
53635;BME280;39542;-34.932;138.594;2022-10-31T01:26:54;98955.29;;;19.07;63.37
53635;BME280;39542;-34.932;138.594;2022-10-31T01:27:29;98953.31;;;19.05;63.40
53635;BME280;39542;-34.932;138.594;2022-10-31T01:28:04;98951.48;;;19.03;63.47
53635;BME280;39542;-34.932;138.594;2022-10-31T01:28:43;98951.65;;;19.05;63.39
53635;BME280;39542;-34.932;138.594;2022-10-31T01:29:18;98953.25;;;19.01;63.47
53635;BME280;39542;-34.932;138.594;2022-10-31T01:29:52;98950.67;;;18.98;63.56
53635;BME280;39542;-34.932;138.594;2022-10-31T01:30:26;98948.15;;;19.00;63.52
53635;BME280;39542;-34.932;138.594;2022-10-31T01:31:05;98945.96;;;18.95;63.57
53635;BME280;39542;-34.932;138.594;2022-10-31T01:31:40;98944.45;;;18.96;63.61
53635;BME280;39542;-34.932;138.594;2022-10-31T01:32:15;98944.67;;;18.82;63.94
53635;BME280;39542;-34.932;138.594;2022-10-31T01:32:50;98944.52;;;18.79;64.01
53635;BME280;39542;-34.932;138.594;2022-10-31T01:33:24;98944.59;;;18.75;64.10
53635;BME280;39542;-34.932;138.594;2022-10-31T01:33:59;98942.04;;;18.75;64.12
53635;BME280;39542;-34.932;138.594;2022-10-31T01:34:33;98939.33;;;18.75;64.15
53635;BME280;39542;-34.932;138.594;2022-10-31T01:35:08;98935.87;;;18.76;64.12
53635;BME280;39542;-34.932;138.594;2022-10-31T01:35:42;98935.15;;;18.73;64.19
53635;BME280;39542;-34.932;138.594;2022-10-31T01:36:20;98933.51;;;18.69;64.24
53635;BME280;39542;-34.932;138.594;2022-10-31T01:36:54;98937.58;;;18.68;64.35
53635;BME280;39542;-34.932;138.594;2022-10-31T01:37:30;98934.17;;;18.71;64.25
53635;BME280;39542;-34.932;138.594;2022-10-31T01:38:04;98933.03;;;18.74;64.17
53635;BME280;39542;-34.932;138.594;2022-10-31T01:38:39;98932.13;;;18.69;64.32
53635;BME280;39542;-34.932;138.594;2022-10-31T01:39:14;98930.86;;;18.66;64.34
53635;BME280;39542;-34.932;138.594;2022-10-31T01:39:51;98933.03;;;18.72;64.20
53635;BME280;39542;-34.932;138.594;2022-10-31T01:40:28;98933.60;;;18.65;64.37
53635;BME280;39542;-34.932;138.594;2022-10-31T01:41:02;98933.78;;;18.59;64.52
53635;BME280;39542;-34.932;138.594;2022-10-31T01:41:38;98932.09;;;18.60;64.54
53635;BME280;39542;-34.932;138.594;2022-10-31T01:42:19;98930.60;;;18.59;64.61
53635;BME280;39542;-34.932;138.594;2022-10-31T01:42:54;98925.56;;;18.61;64.59
53635;BME280;39542;-34.932;138.594;2022-10-31T01:43:45;98921.37;;;18.62;64.57
53635;BME280;39542;-34.932;138.594;2022-10-31T01:44:55;98917.44;;;18.57;64.64
53635;BME280;39542;-34.932;138.594;2022-10-31T01:45:31;98918.64;;;18.55;64.67
53635;BME280;39542;-34.932;138.594;2022-10-31T01:46:06;98918.51;;;18.60;64.60
53635;BME280;39542;-34.932;138.594;2022-10-31T01:46:44;98920.39;;;18.53;64.78
53635;BME280;39542;-34.932;138.594;2022-10-31T01:47:24;98927.47;;;18.44;65.02
53635;BME280;39542;-34.932;138.594;2022-10-31T01:47:59;98931.38;;;18.45;64.99
53635;BME280;39542;-34.932;138.594;2022-10-31T01:48:33;98934.07;;;18.48;64.94
53635;BME280;39542;-34.932;138.594;2022-10-31T01:49:12;98932.56;;;18.49;64.90
53635;BME280;39542;-34.932;138.594;2022-10-31T01:49:51;98936.06;;;18.50;64.92
53635;BME280;39542;-34.932;138.594;2022-10-31T01:50:30;98929.77;;;18.49;64.87
53635;BME280;39542;-34.932;138.594;2022-10-31T01:51:08;98927.49;;;18.52;64.85
53635;BME280;39542;-34.932;138.594;2022-10-31T01:51:49;98927.18;;;18.57;64.70
53635;BME280;39542;-34.932;138.594;2022-10-31T01:52:27;98928.55;;;18.55;64.79
53635;BME280;39542;-34.932;138.594;2022-10-31T01:53:03;98924.77;;;18.59;64.66
53635;BME280;39542;-34.932;138.594;2022-10-31T01:53:42;98924.33;;;18.59;64.66
53635;BME280;39542;-34.932;138.594;2022-10-31T01:54:19;98927.25;;;18.55;64.72
53635;BME280;39542;-34.932;138.594;2022-10-31T01:54:57;98931.14;;;18.58;64.70
53635;BME280;39542;-34.932;138.594;2022-10-31T01:55:37;98921.97;;;18.61;64.58
53635;BME280;39542;-34.932;138.594;2022-10-31T01:56:50;98921.68;;;18.59;64.61
53635;BME280;39542;-34.932;138.594;2022-10-31T01:57:27;98924.76;;;18.50;64.85
53635;BME280;39542;-34.932;138.594;2022-10-31T01:58:06;98924.50;;;18.48;64.88
53635;BME280;39542;-34.932;138.594;2022-10-31T01:58:42;98923.37;;;18.56;64.71
53635;BME280;39542;-34.932;138.594;2022-10-31T01:59:19;98922.67;;;18.52;64.78
53635;BME280;39542;-34.932;138.594;2022-10-31T01:59:58;98918.16;;;18.52;64.80
53635;BME280;39542;-34.932;138.594;2022-10-31T02:00:34;98918.14;;;18.48;64.89
53635;BME280;39542;-34.932;138.594;2022-10-31T02:01:09;98918.50;;;18.53;64.78
53635;BME280;39542;-34.932;138.594;2022-10-31T02:01:44;98918.98;;;18.55;64.69
53635;BME280;39542;-34.932;138.594;2022-10-31T02:02:19;98919.93;;;18.55;64.69
53635;BME280;39542;-34.932;138.594;2022-10-31T02:02:54;98920.68;;;18.49;64.84
53635;BME280;39542;-34.932;138.594;2022-10-31T02:03:29;98927.42;;;18.44;64.93
53635;BME280;39542;-34.932;138.594;2022-10-31T02:04:06;98922.29;;;18.47;64.88
53635;BME280;39542;-34.932;138.594;2022-10-31T02:04:42;98919.85;;;18.49;64.91
53635;BME280;39542;-34.932;138.594;2022-10-31T02:05:21;98918.63;;;18.54;64.74
53635;BME280;39542;-34.932;138.594;2022-10-31T02:05:57;98918.51;;;18.62;64.57
53635;BME280;39542;-34.932;138.594;2022-10-31T02:06:36;98920.89;;;18.61;64.56
53635;BME280;39542;-34.932;138.594;2022-10-31T02:07:16;98916.17;;;18.56;64.70
53635;BME280;39542;-34.932;138.594;2022-10-31T02:07:57;98917.46;;;18.51;64.82
53635;BME280;39542;-34.932;138.594;2022-10-31T02:08:34;98914.27;;;18.48;64.86
53635;BME280;39542;-34.932;138.594;2022-10-31T02:09:10;98919.32;;;18.48;64.87
53635;BME280;39542;-34.932;138.594;2022-10-31T02:09:46;98922.88;;;18.50;64.82
53635;BME280;39542;-34.932;138.594;2022-10-31T02:10:23;98920.33;;;18.43;65.02
53635;BME280;39542;-34.932;138.594;2022-10-31T02:10:58;98920.73;;;18.38;65.13
53635;BME280;39542;-34.932;138.594;2022-10-31T02:11:34;98915.08;;;18.45;65.03
53635;BME280;39542;-34.932;138.594;2022-10-31T02:12:11;98912.59;;;18.49;64.87
53635;BME280;39542;-34.932;138.594;2022-10-31T02:12:46;98908.91;;;18.49;64.93
53635;BME280;39542;-34.932;138.594;2022-10-31T02:13:22;98907.98;;;18.50;64.86
53635;BME280;39542;-34.932;138.594;2022-10-31T02:13:58;98906.58;;;18.42;65.07
53635;BME280;39542;-34.932;138.594;2022-10-31T02:14:34;98904.65;;;18.47;64.94
53635;BME280;39542;-34.932;138.594;2022-10-31T02:15:10;98900.62;;;18.65;64.53
53635;BME280;39542;-34.932;138.594;2022-10-31T02:15:47;98899.01;;;18.52;64.84
53635;BME280;39542;-34.932;138.594;2022-10-31T02:16:23;98895.97;;;18.50;64.95
53635;BME280;39542;-34.932;138.594;2022-10-31T02:16:57;98898.19;;;18.45;65.10
53635;BME280;39542;-34.932;138.594;2022-10-31T02:17:34;98893.03;;;18.53;64.77
53635;BME280;39542;-34.932;138.594;2022-10-31T02:18:09;98891.98;;;18.50;64.96
53635;BME280;39542;-34.932;138.594;2022-10-31T02:18:43;98886.31;;;18.48;65.00
53635;BME280;39542;-34.932;138.594;2022-10-31T02:19:25;98885.79;;;18.49;64.95
53635;BME280;39542;-34.932;138.594;2022-10-31T02:20:11;98884.36;;;18.46;65.04
53635;BME280;39542;-34.932;138.594;2022-10-31T02:20:54;98881.12;;;18.54;64.86
53635;BME280;39542;-34.932;138.594;2022-10-31T02:21:35;98880.00;;;18.58;64.82
53635;BME280;39542;-34.932;138.594;2022-10-31T02:22:19;98878.26;;;18.50;64.87
53635;BME280;39542;-34.932;138.594;2022-10-31T02:23:30;98882.84;;;18.53;64.88
53635;BME280;39542;-34.932;138.594;2022-10-31T02:24:43;98883.10;;;18.53;64.87
53635;BME280;39542;-34.932;138.594;2022-10-31T02:25:35;98886.10;;;18.50;64.99
53635;BME280;39542;-34.932;138.594;2022-10-31T02:26:33;98883.49;;;18.62;64.70
53635;BME280;39542;-34.932;138.594;2022-10-31T02:27:46;98884.17;;;18.63;64.58
53635;BME280;39542;-34.932;138.594;2022-10-31T02:28:38;98884.67;;;18.65;64.56
53635;BME280;39542;-34.932;138.594;2022-10-31T02:29:41;98888.63;;;18.72;64.43
53635;BME280;39542;-34.932;138.594;2022-10-31T02:30:26;98891.67;;;18.76;64.29
53635;BME280;39542;-34.932;138.594;2022-10-31T02:31:18;98889.59;;;18.80;64.24
53635;BME280;39542;-34.932;138.594;2022-10-31T02:32:00;98891.17;;;18.81;64.21
53635;BME280;39542;-34.932;138.594;2022-10-31T02:32:51;98892.20;;;18.84;64.08
53635;BME280;39542;-34.932;138.594;2022-10-31T02:33:33;98891.21;;;18.82;64.12
53635;BME280;39542;-34.932;138.594;2022-10-31T02:34:17;98888.23;;;18.82;64.15
53635;BME280;39542;-34.932;138.594;2022-10-31T02:37:51;98878.27;;;18.91;63.91
53635;BME280;39542;-34.932;138.594;2022-10-31T02:38:41;98874.81;;;18.89;63.90
53635;BME280;39542;-34.932;138.594;2022-10-31T02:39:24;98872.57;;;18.98;63.71
53635;BME280;39542;-34.932;138.594;2022-10-31T02:40:09;98873.72;;;18.97;63.73
53635;BME280;39542;-34.932;138.594;2022-10-31T02:40:58;98874.20;;;18.93;63.78
53635;BME280;39542;-34.932;138.594;2022-10-31T02:41:37;98871.22;;;18.94;63.72
53635;BME280;39542;-34.932;138.594;2022-10-31T02:42:18;98871.41;;;18.92;63.80
53635;BME280;39542;-34.932;138.594;2022-10-31T02:43:03;98871.08;;;18.93;63.78
53635;BME280;39542;-34.932;138.594;2022-10-31T02:43:44;98865.04;;;18.91;63.85
53635;BME280;39542;-34.932;138.594;2022-10-31T02:44:27;98864.89;;;18.94;63.76
53635;BME280;39542;-34.932;138.594;2022-10-31T02:45:08;98864.84;;;18.97;63.65
53635;BME280;39542;-34.932;138.594;2022-10-31T02:45:51;98863.65;;;19.00;63.62
53635;BME280;39542;-34.932;138.594;2022-10-31T02:46:35;98863.09;;;18.98;63.64
53635;BME280;39542;-34.932;138.594;2022-10-31T02:47:16;98863.17;;;18.89;63.86
53635;BME280;39542;-34.932;138.594;2022-10-31T02:47:53;98862.02;;;18.90;63.89
53635;BME280;39542;-34.932;138.594;2022-10-31T02:48:31;98863.99;;;18.95;63.78
53635;BME280;39542;-34.932;138.594;2022-10-31T02:49:10;98862.26;;;18.91;63.93
53635;BME280;39542;-34.932;138.594;2022-10-31T02:49:53;98859.58;;;18.94;63.72
53635;BME280;39542;-34.932;138.594;2022-10-31T02:50:33;98859.26;;;18.88;63.89
53635;BME280;39542;-34.932;138.594;2022-10-31T02:51:09;98858.20;;;18.89;63.91
53635;BME280;39542;-34.932;138.594;2022-10-31T02:51:45;98856.44;;;18.98;63.69
53635;BME280;39542;-34.932;138.594;2022-10-31T02:52:20;98855.35;;;18.99;63.60
53635;BME280;39542;-34.932;138.594;2022-10-31T02:52:56;98854.89;;;18.96;63.71
53635;BME280;39542;-34.932;138.594;2022-10-31T02:53:34;98857.77;;;18.94;63.86
53635;BME280;39542;-34.932;138.594;2022-10-31T02:54:22;98855.19;;;18.93;63.80
53635;BME280;39542;-34.932;138.594;2022-10-31T02:54:57;98852.72;;;18.93;63.78
53635;BME280;39542;-34.932;138.594;2022-10-31T02:56:06;98851.07;;;18.97;63.69
53635;BME280;39542;-34.932;138.594;2022-10-31T02:56:43;98846.99;;;19.00;63.61
53635;BME280;39542;-34.932;138.594;2022-10-31T02:57:19;98848.90;;;18.99;63.61
53635;BME280;39542;-34.932;138.594;2022-10-31T02:58:00;98847.84;;;19.01;63.58
53635;BME280;39542;-34.932;138.594;2022-10-31T02:58:38;98850.73;;;19.01;63.58
53635;BME280;39542;-34.932;138.594;2022-10-31T02:59:14;98847.16;;;19.07;63.39
53635;BME280;39542;-34.932;138.594;2022-10-31T02:59:50;98848.71;;;19.10;63.36
53635;BME280;39542;-34.932;138.594;2022-10-31T03:00:27;98844.56;;;19.08;63.36
53635;BME280;39542;-34.932;138.594;2022-10-31T03:01:21;98843.08;;;19.12;63.31
53635;BME280;39542;-34.932;138.594;2022-10-31T03:02:10;98841.72;;;19.15;63.22
53635;BME280;39542;-34.932;138.594;2022-10-31T03:02:57;98837.34;;;19.13;63.18
53635;BME280;39542;-34.932;138.594;2022-10-31T03:03:38;98830.97;;;19.13;63.18
53635;BME280;39542;-34.932;138.594;2022-10-31T03:04:56;98826.59;;;19.14;63.16
53635;BME280;39542;-34.932;138.594;2022-10-31T03:05:45;98820.71;;;19.17;63.11
53635;BME280;39542;-34.932;138.594;2022-10-31T03:06:31;98817.14;;;19.18;63.11
53635;BME280;39542;-34.932;138.594;2022-10-31T03:07:15;98815.22;;;19.18;63.07
53635;BME280;39542;-34.932;138.594;2022-10-31T03:08:01;98813.39;;;19.02;63.41
53635;BME280;39542;-34.932;138.594;2022-10-31T03:08:45;98817.10;;;19.08;63.35
53635;BME280;39542;-34.932;138.594;2022-10-31T03:09:26;98814.06;;;19.11;63.26
53635;BME280;39542;-34.932;138.594;2022-10-31T03:10:09;98813.98;;;19.10;63.26
53635;BME280;39542;-34.932;138.594;2022-10-31T03:10:51;98814.26;;;19.05;63.38
53635;BME280;39542;-34.932;138.594;2022-10-31T03:11:32;98813.98;;;18.97;63.69
53635;BME280;39542;-34.932;138.594;2022-10-31T03:12:14;98813.21;;;18.98;63.62
53635;BME280;39542;-34.932;138.594;2022-10-31T03:12:56;98811.39;;;18.99;63.63
53635;BME280;39542;-34.932;138.594;2022-10-31T03:13:38;98813.76;;;19.02;63.60
53635;BME280;39542;-34.932;138.594;2022-10-31T03:14:21;98815.83;;;19.06;63.51
53635;BME280;39542;-34.932;138.594;2022-10-31T03:15:10;98815.92;;;19.07;63.49
53635;BME280;39542;-34.932;138.594;2022-10-31T03:15:48;98818.22;;;19.11;63.36
53635;BME280;39542;-34.932;138.594;2022-10-31T03:16:28;98818.53;;;19.07;63.43